Time;durP1;ratioP1;P1;durP2;ratioP2;P2;SDS_P1;SDS_P2;PMS_P1;PMS_P2;Temp;Humidity;BMP_temperature;BMP_pressure;BME280_temperature;BME280_humidity;BME280_pressure;Samples;Min_cycle;Max_cycle;Signal;HPM_P1;HPM_P2
2021/06/05 00:00:44;;;;;;;5.13;2.30;;;;;;;20.55;42.07;100160.13;3388678;29;20111;-71
2021/06/05 00:02:27;;;;;;;4.70;1.92;;;;;;;20.50;42.09;100155.44;3403532;29;20119;-71
2021/06/05 00:04:08;;;;;;;12.57;3.55;;;;;;;20.49;42.27;100156.50;3403456;29;20044;-71
2021/06/05 00:05:56;;;;;;;4.07;1.90;;;;;;;20.49;41.55;100154.59;3389206;29;20531;-72
2021/06/05 00:07:37;;;;;;;7.78;1.88;;;;;;;20.44;41.84;100146.41;3401555;29;20051;-72
2021/06/05 00:09:20;;;;;;;7.20;1.90;;;;;;;20.48;41.88;100149.44;3388496;29;20131;-72
2021/06/05 00:11:03;;;;;;;6.65;3.13;;;;;;;20.47;41.74;100151.34;3399594;29;20106;-70
2021/06/05 00:12:44;;;;;;;5.68;2.20;;;;;;;20.49;41.94;100151.06;3400413;29;20047;-70
2021/06/05 00:14:25;;;;;;;3.60;2.00;;;;;;;20.48;41.54;100144.84;3401803;29;20651;-71
2021/06/05 00:16:09;;;;;;;5.20;2.13;;;;;;;20.48;41.65;100152.16;3402746;29;20040;-70
2021/06/05 00:17:50;;;;;;;5.18;2.33;;;;;;;20.46;41.70;100149.69;3414676;29;20043;-71
2021/06/05 00:19:30;;;;;;;9.53;2.03;;;;;;;20.45;41.45;100145.34;3416327;28;20110;-70
2021/06/05 00:21:11;;;;;;;3.15;1.75;;;;;;;20.42;41.34;100145.84;3410950;29;20142;-70
2021/06/05 00:22:52;;;;;;;6.32;2.25;;;;;;;20.42;41.59;100145.84;3403105;29;20036;-71
2021/06/05 00:24:33;;;;;;;13.47;2.20;;;;;;;20.41;41.71;100143.38;3403379;29;20189;-71
2021/06/05 00:26:15;;;;;;;8.10;2.50;;;;;;;20.40;41.42;100147.16;3402466;29;20032;-69
2021/06/05 00:27:56;;;;;;;8.50;1.85;;;;;;;20.38;41.51;100150.09;3402702;29;20047;-70
2021/06/05 00:29:38;;;;;;;5.88;1.58;;;;;;;20.38;41.53;100150.09;3362459;29;20052;-70
2021/06/05 00:31:19;;;;;;;2.97;1.75;;;;;;;20.38;41.36;100155.53;3374073;29;20134;-71
2021/06/05 00:33:00;;;;;;;6.60;2.05;;;;;;;20.38;42.26;100150.09;3389788;29;20109;-70
2021/06/05 00:34:41;;;;;;;5.00;1.83;;;;;;;20.38;42.07;100147.41;3401389;29;20126;-69
2021/06/05 00:36:23;;;;;;;4.22;1.50;;;;;;;20.39;41.83;100148.22;3402707;29;20044;-70
2021/06/05 00:38:05;;;;;;;2.58;1.48;;;;;;;20.37;41.81;100148.47;3388828;29;20135;-70
2021/06/05 00:39:45;;;;;;;2.25;1.50;;;;;;;20.37;41.63;100147.66;3389481;29;20044;-70
2021/06/05 00:41:27;;;;;;;4.60;1.80;;;;;;;20.36;41.74;100146.81;3390019;29;20044;-70
2021/06/05 00:43:11;;;;;;;7.68;1.80;;;;;;;20.34;41.66;100148.97;3378651;29;20044;-71
2021/06/05 00:44:51;;;;;;;5.30;1.70;;;;;;;20.32;41.39;100145.69;3400380;29;20392;-70
2021/06/05 00:46:33;;;;;;;3.90;2.10;;;;;;;20.32;41.80;100144.88;3387974;29;20141;-70
2021/06/05 00:48:14;;;;;;;;;;;;;;;20.36;41.56;100141.41;3389383;29;20079;-70
2021/06/05 00:50:03;;;;;;;7.38;1.77;;;;;;;20.25;41.84;100145.84;3387103;29;20468;-70
2021/06/05 00:51:49;;;;;;;3.97;1.85;;;;;;;20.25;42.27;100145.84;3400239;29;20462;-70
2021/06/05 00:53:33;;;;;;;10.10;2.53;;;;;;;20.24;41.88;100148.81;3388949;29;20055;-70
2021/06/05 00:55:15;;;;;;;;;;;;;;;20.31;41.89;100151.34;3400719;29;20056;-70
2021/06/05 00:56:58;;;;;;;;;;;;;;;20.30;41.41;100145.13;3402223;29;19922;-70
2021/06/05 00:58:43;;;;;;;3.88;2.03;;;;;;;20.19;41.64;100137.91;3388535;29;20418;-70
2021/06/05 01:00:28;;;;;;;4.70;1.70;;;;;;;20.18;41.73;100139.78;3385142;29;20040;-70
2021/06/05 01:02:09;;;;;;;4.70;2.53;;;;;;;20.15;41.45;100134.88;3386157;29;20044;-70
2021/06/05 01:03:51;;;;;;;4.20;1.40;;;;;;;20.14;42.01;100137.84;3388396;29;20066;-70
2021/06/05 01:05:35;;;;;;;2.45;1.38;;;;;;;20.10;41.74;100136.69;3388737;29;20107;-69
2021/06/05 01:07:25;;;;;;;3.50;1.30;;;;;;;20.10;41.95;100136.69;3386084;29;20148;-70
2021/06/05 01:09:14;;;;;;;4.85;1.35;;;;;;;20.07;41.90;100138.00;3388346;29;20044;-70
2021/06/05 01:11:02;;;;;;;5.90;1.70;;;;;;;20.02;41.76;100130.59;3375603;29;20435;-70
2021/06/05 01:12:48;;;;;;;6.70;1.65;;;;;;;20.03;42.06;100131.41;3387186;29;20051;-70
2021/06/05 01:14:48;;;;;;;2.50;1.88;;;;;;;20.03;41.82;100126.00;3373761;29;20051;-70
2021/06/05 01:16:30;;;;;;;2.88;1.50;;;;;;;19.99;42.23;100136.50;3388401;29;20058;-71
2021/06/05 01:18:26;;;;;;;4.20;1.75;;;;;;;20.00;42.22;100132.72;3374633;29;20559;-70
2021/06/05 01:20:10;;;;;;;4.22;1.98;;;;;;;19.95;41.89;100127.22;3387434;29;20087;-70
2021/06/05 01:22:15;;;;;;;4.40;1.65;;;;;;;19.99;41.92;100133.81;3386367;29;20052;-71
2021/06/05 01:24:12;;;;;;;3.25;1.73;;;;;;;19.97;42.41;100127.81;3388156;29;20582;-70
2021/06/05 01:26:08;;;;;;;3.63;2.17;;;;;;;19.96;42.13;100131.59;3387791;29;20048;-70
2021/06/05 01:28:06;;;;;;;3.83;1.65;;;;;;;19.93;41.89;100129.38;3401251;29;20490;-70
2021/06/05 01:29:54;;;;;;;4.28;1.70;;;;;;;19.91;42.15;100128.81;3375161;29;20056;-70
2021/06/05 01:31:47;;;;;;;2.58;1.33;;;;;;;19.91;42.04;100128.00;3365688;29;20040;-70
2021/06/05 01:33:29;;;;;;;4.82;1.75;;;;;;;19.86;41.74;100125.19;3392428;29;20043;-70
2021/06/05 01:35:15;;;;;;;4.30;1.65;;;;;;;19.90;42.10;100137.97;3375004;29;20042;-71
2021/06/05 01:36:57;;;;;;;5.40;1.98;;;;;;;19.90;41.97;100131.75;3397682;29;20039;-69
2021/06/05 01:38:43;;;;;;;6.13;3.28;;;;;;;19.88;42.19;100131.16;3374475;29;20599;-71
2021/06/05 01:40:26;;;;;;;5.97;1.40;;;;;;;19.89;42.26;100128.22;3386126;29;20036;-71
2021/06/05 01:42:15;;;;;;;6.03;1.67;;;;;;;19.88;41.80;100128.47;3385805;29;20095;-70
2021/06/05 01:43:58;;;;;;;2.95;1.80;;;;;;;19.87;42.10;100133.06;3373483;29;20044;-70
2021/06/05 01:45:41;;;;;;;5.55;1.60;;;;;;;19.82;42.02;100119.44;3385391;29;20043;-71
2021/06/05 01:47:22;;;;;;;4.93;1.67;;;;;;;19.84;42.27;100128.13;3399330;29;20043;-70
2021/06/05 01:49:03;;;;;;;5.43;1.83;;;;;;;19.86;41.96;100119.78;3387796;29;20463;-70
2021/06/05 01:50:47;;;;;;;5.00;2.40;;;;;;;19.85;41.96;100121.66;3372865;29;20293;-70
2021/06/05 01:52:30;;;;;;;3.03;1.65;;;;;;;19.83;41.67;100121.91;3383366;29;20043;-71
2021/06/05 01:54:23;;;;;;;3.38;1.40;;;;;;;19.82;42.13;100114.84;3385855;29;20048;-71
2021/06/05 01:56:12;;;;;;;2.05;1.38;;;;;;;19.85;42.36;100120.84;3362201;29;20048;-69
2021/06/05 01:57:58;;;;;;;2.22;1.60;;;;;;;19.88;42.31;100114.94;3386411;29;20052;-70
2021/06/05 01:59:55;;;;;;;4.75;2.17;;;;;;;19.89;42.41;100122.81;3399333;29;20577;-70
2021/06/05 02:01:39;;;;;;;3.22;1.50;;;;;;;19.91;42.28;100123.41;3363443;29;20065;-71
2021/06/05 02:03:23;;;;;;;5.47;1.58;;;;;;;19.89;42.28;100120.13;3384354;29;20131;-70
2021/06/05 02:05:21;;;;;;;3.63;1.60;;;;;;;19.90;42.23;100121.72;3374889;29;20048;-69
2021/06/05 02:07:07;;;;;;;3.38;1.30;;;;;;;19.90;42.45;100116.31;3372808;29;20500;-70
2021/06/05 02:08:52;;;;;;;4.95;1.83;;;;;;;19.91;42.04;100112.56;3382647;29;20051;-71
2021/06/05 02:10:35;;;;;;;1.52;1.40;;;;;;;19.93;42.07;100112.31;3385283;29;20059;-72
2021/06/05 02:12:24;;;;;;;2.83;1.90;;;;;;;19.94;41.77;100106.66;3385787;29;20040;-70
2021/06/05 02:14:17;;;;;;;6.50;1.75;;;;;;;19.96;41.93;100109.94;3386894;29;20040;-71
2021/06/05 02:16:13;;;;;;;2.85;1.77;;;;;;;19.98;42.21;100105.13;3385885;29;20109;-71
2021/06/05 02:17:55;;;;;;;5.28;1.70;;;;;;;19.97;41.97;100106.16;3385686;29;20032;-70
2021/06/05 02:19:40;;;;;;;8.30;2.42;;;;;;;20.03;41.98;100101.66;3384070;29;20083;-71
2021/06/05 02:21:44;;;;;;;3.70;1.58;;;;;;;20.04;41.99;100098.72;3380010;29;20055;-72
2021/06/05 02:23:34;;;;;;;7.45;1.77;;;;;;;20.10;41.90;100101.50;3374760;29;20051;-72
2021/06/05 02:25:17;;;;;;;5.93;1.35;;;;;;;20.09;41.71;100099.88;3384932;29;20072;-70
2021/06/05 02:27:00;;;;;;;2.03;1.33;;;;;;;20.11;41.77;100105.84;3372707;29;20131;-72
2021/06/05 02:28:52;;;;;;;4.53;1.85;;;;;;;20.10;41.56;100105.00;3372538;29;20515;-71
2021/06/05 02:30:34;;;;;;;6.05;1.77;;;;;;;20.08;41.94;100099.03;3373616;29;20052;-70
2021/06/05 02:32:16;;;;;;;;;;;;;;;20.18;41.32;100106.50;3360283;29;20052;-70
2021/06/05 02:34:01;;;;;;;3.80;1.45;;;;;;;20.07;41.25;100093.88;3382888;29;19923;-71
2021/06/05 02:35:42;;;;;;;5.72;1.70;;;;;;;20.10;41.36;100107.72;3388387;29;20048;-71
2021/06/05 02:37:49;;;;;;;5.07;2.05;;;;;;;20.12;41.32;100102.88;3383902;29;20055;-71
2021/06/05 02:39:36;;;;;;;2.78;1.70;;;;;;;20.12;41.24;100104.78;3386711;29;20123;-70
2021/06/05 02:41:22;;;;;;;3.72;1.83;;;;;;;20.15;41.34;100109.69;3372693;29;20444;-71
2021/06/05 02:43:14;;;;;;;5.35;2.63;;;;;;;20.19;41.23;100106.25;3372885;29;20045;-70
2021/06/05 02:45:00;;;;;;;4.70;3.13;;;;;;;20.23;41.52;100109.28;3386202;29;20044;-71
2021/06/05 02:46:43;;;;;;;8.20;3.45;;;;;;;20.26;41.45;100101.50;3385311;29;20122;-70
2021/06/05 02:48:37;;;;;;;6.28;2.97;;;;;;;20.33;41.25;100103.19;3386887;29;20040;-71
2021/06/05 02:50:17;;;;;;;5.57;3.00;;;;;;;20.30;40.99;100104.50;3385696;29;20524;-71
2021/06/05 02:52:30;;;;;;;8.80;2.90;;;;;;;20.35;41.23;100110.00;3387191;29;20102;-72
2021/06/05 02:54:23;;;;;;;4.78;2.25;;;;;;;20.35;40.97;100104.59;3388293;29;20058;-71
2021/06/05 02:56:04;;;;;;;4.55;2.00;;;;;;;20.37;41.20;100105.16;3388404;29;20108;-71
2021/06/05 02:57:49;;;;;;;5.95;2.00;;;;;;;20.41;41.37;100092.75;3374722;29;20540;-71
2021/06/05 02:59:30;;;;;;;3.83;1.52;;;;;;;20.44;40.94;100094.94;3385585;29;20048;-71
2021/06/05 03:01:12;;;;;;;10.82;4.45;;;;;;;20.47;40.74;100093.63;3388224;29;20040;-70
2021/06/05 03:02:56;;;;;;;17.38;12.38;;;;;;;20.47;40.99;100093.63;3387459;29;20044;-70
2021/06/05 03:04:37;;;;;;;16.73;10.43;;;;;;;20.49;40.70;100095.03;3387204;29;20048;-70
2021/06/05 03:06:19;;;;;;;11.23;6.93;;;;;;;20.53;40.40;100095.34;3385049;29;20518;-70
2021/06/05 03:08:00;;;;;;;6.32;4.47;;;;;;;20.53;40.51;100089.13;3384936;29;20036;-70
2021/06/05 03:09:42;;;;;;;12.55;3.33;;;;;;;20.58;40.39;100094.66;3387183;29;20036;-70
2021/06/05 03:11:23;;;;;;;5.45;2.25;;;;;;;20.61;40.51;100092.25;3387153;29;20052;-70
2021/06/05 03:13:10;;;;;;;6.03;2.50;;;;;;;20.63;40.21;100083.88;3388012;29;20133;-71
2021/06/05 03:14:53;;;;;;;6.70;2.55;;;;;;;20.66;40.41;100086.09;3387666;29;20141;-71
2021/06/05 03:16:34;;;;;;;5.27;2.10;;;;;;;20.69;40.11;100086.38;3387695;29;20044;-70
2021/06/05 03:18:16;;;;;;;7.28;2.33;;;;;;;20.75;40.71;100087.25;3386701;29;20044;-69
2021/06/05 03:19:56;;;;;;;;;;;;;;;20.87;40.42;100098.00;3388372;29;20087;-70
2021/06/05 03:21:39;;;;;;;2.35;1.50;;;;;;;20.85;40.16;100090.09;3390160;29;19931;-70
2021/06/05 03:23:31;;;;;;;8.52;1.73;;;;;;;20.87;40.04;100093.38;3390017;29;20172;-70
2021/06/05 03:25:15;;;;;;;3.70;2.08;;;;;;;20.86;40.28;100086.34;3374511;29;20044;-70
2021/06/05 03:26:56;;;;;;;3.17;1.73;;;;;;;20.90;40.23;100084.75;3385097;29;20471;-71
2021/06/05 03:28:40;;;;;;;2.28;1.50;;;;;;;20.91;40.14;100089.09;3373998;29;20052;-71
2021/06/05 03:30:24;;;;;;;4.60;1.90;;;;;;;20.94;39.95;100085.06;3377319;29;20119;-70
2021/06/05 03:32:05;;;;;;;3.10;1.75;;;;;;;20.99;40.03;100095.13;3390226;29;20047;-69
2021/06/05 03:33:48;;;;;;;4.13;1.77;;;;;;;21.01;40.16;100087.56;3389337;29;20630;-70
2021/06/05 03:35:31;;;;;;;7.90;2.47;;;;;;;21.05;40.14;100086.81;3387890;29;20072;-70
2021/06/05 03:37:12;;;;;;;6.40;1.58;;;;;;;21.08;39.84;100089.00;3390174;29;20051;-70
2021/06/05 03:38:58;;;;;;;2.45;1.27;;;;;;;21.08;39.62;100085.50;3389643;29;20479;-70
2021/06/05 03:40:45;;;;;;;5.45;1.88;;;;;;;21.11;39.93;100084.97;3387294;29;20062;-70
2021/06/05 03:42:26;;;;;;;7.47;2.35;;;;;;;21.13;39.71;100089.06;3390750;29;20076;-71
2021/06/05 03:44:07;;;;;;;4.90;1.80;;;;;;;21.17;39.92;100080.41;3389608;29;20056;-69
2021/06/05 03:45:49;;;;;;;;;;;;;;;21.25;39.67;100083.50;3387383;29;20146;-70
2021/06/05 03:47:30;;;;;;;5.13;1.70;;;;;;;21.22;39.66;100078.59;3386818;29;19919;-70
2021/06/05 03:49:13;;;;;;;2.75;1.55;;;;;;;21.24;39.87;100081.84;3385776;29;20047;-70
2021/06/05 03:50:54;;;;;;;2.95;1.60;;;;;;;21.27;39.67;100086.78;3389241;29;20100;-69
2021/06/05 03:52:36;;;;;;;;;;;;;;;21.35;39.71;100077.38;3390906;29;20112;-70
2021/06/05 03:54:18;;;;;;;2.38;1.27;;;;;;;21.32;39.79;100078.72;3389477;29;19923;-70
2021/06/05 03:55:59;;;;;;;2.00;1.42;;;;;;;21.30;39.88;100070.00;3390331;29;20047;-69
2021/06/05 03:57:40;;;;;;;6.18;1.52;;;;;;;21.32;39.82;100072.44;3390271;29;20511;-69
2021/06/05 03:59:21;;;;;;;6.47;1.63;;;;;;;21.34;39.75;100064.88;3390540;29;20047;-69
2021/06/05 04:01:02;;;;;;;5.63;1.50;;;;;;;21.37;39.81;100075.22;3389885;29;20046;-69
2021/06/05 04:02:43;;;;;;;5.97;1.43;;;;;;;21.41;40.09;100079.09;3390129;29;20052;-69
2021/06/05 04:04:23;;;;;;;3.17;1.40;;;;;;;21.43;40.20;100068.81;3389886;29;20454;-70
2021/06/05 04:06:05;;;;;;;2.40;1.40;;;;;;;21.45;39.98;100074.81;3390307;29;20130;-70
2021/06/05 04:07:46;;;;;;;6.25;1.70;;;;;;;21.48;40.17;100071.56;3390177;29;20043;-71
2021/06/05 04:09:27;;;;;;;2.97;1.30;;;;;;;21.49;40.34;100073.19;3390462;29;20111;-69
2021/06/05 04:11:08;;;;;;;4.43;1.70;;;;;;;21.52;39.91;100071.88;3389813;29;20040;-70
2021/06/05 04:12:50;;;;;;;14.80;2.17;;;;;;;21.52;39.86;100072.66;3390287;29;20415;-69
2021/06/05 04:14:31;;;;;;;3.88;1.45;;;;;;;21.57;39.43;100074.63;3389993;29;20052;-69
2021/06/05 04:16:13;;;;;;;5.00;1.57;;;;;;;21.58;39.36;100072.72;3389974;29;20496;-70
2021/06/05 04:18:14;;;;;;;15.77;1.77;;;;;;;21.66;39.55;100067.66;3389872;29;20091;-70
2021/06/05 04:19:56;;;;;;;18.35;1.98;;;;;;;21.68;39.41;100076.34;3376204;29;20083;-72
2021/06/05 04:21:37;;;;;;;11.17;2.80;;;;;;;21.72;39.57;100068.50;3375477;29;20041;-69
2021/06/05 04:23:18;;;;;;;15.87;2.30;;;;;;;21.75;39.53;100063.38;3376935;29;20040;-71
2021/06/05 04:25:00;;;;;;;8.20;1.80;;;;;;;21.80;39.46;100072.66;3376974;29;20037;-70
2021/06/05 04:26:42;;;;;;;7.70;2.00;;;;;;;21.85;40.00;100059.94;3375910;29;20056;-69
2021/06/05 04:28:24;;;;;;;4.73;1.63;;;;;;;21.89;39.71;100060.22;3376548;29;20052;-70
2021/06/05 04:30:09;;;;;;;;;;;;;;;22.00;39.86;100053.81;3376786;29;20139;-69
2021/06/05 04:31:50;;;;;;;6.47;2.83;;;;;;;21.97;39.95;100051.63;3374940;29;19927;-71
2021/06/05 04:33:31;;;;;;;5.23;2.17;;;;;;;22.01;39.97;100058.13;3376455;29;20514;-70
2021/06/05 04:35:12;;;;;;;3.20;2.45;;;;;;;;;;3376566;29;20526;-69
2021/06/05 04:36:53;;;;;;;6.35;1.95;;;;;;;22.10;39.76;100056.59;3376187;29;20044;-69
2021/06/05 04:38:36;;;;;;;9.40;1.97;;;;;;;22.11;40.13;100046.53;3377094;29;20617;-69
2021/06/05 04:40:18;;;;;;;11.05;2.03;;;;;;;22.18;40.18;100053.38;3377014;29;20044;-71
2021/06/05 04:41:59;;;;;;;10.68;2.38;;;;;;;22.24;40.13;100048.00;3376998;29;20500;-70
2021/06/05 04:43:40;;;;;;;7.83;1.93;;;;;;;22.27;40.28;100048.28;3376432;29;20055;-68
2021/06/05 04:45:21;;;;;;;5.18;1.77;;;;;;;22.32;40.78;100052.94;3377023;29;20123;-69
2021/06/05 04:47:02;;;;;;;3.75;1.45;;;;;;;22.36;40.80;100044.00;3376540;29;20060;-70
2021/06/05 04:48:45;;;;;;;4.57;1.50;;;;;;;22.37;40.30;100045.63;3375661;29;20033;-70
2021/06/05 04:50:29;;;;;;;2.30;1.30;;;;;;;22.42;39.86;100048.38;3376650;29;20049;-70
2021/06/05 04:52:10;;;;;;;4.97;1.40;;;;;;;22.47;40.58;100044.06;3376101;29;20119;-70
2021/06/05 04:53:51;;;;;;;6.73;1.50;;;;;;;22.49;41.09;100034.56;3376855;29;20057;-70
2021/06/05 04:55:33;;;;;;;5.38;1.52;;;;;;;22.59;40.60;100036.50;3376786;29;20104;-70
2021/06/05 04:57:14;;;;;;;2.38;1.02;;;;;;;22.64;40.46;100045.50;3376767;29;20052;-71
2021/06/05 04:58:55;;;;;;;5.20;1.53;;;;;;;22.74;42.61;100030.28;3376824;29;20048;-72
2021/06/05 05:00:37;;;;;;;7.20;2.00;;;;;;;22.90;44.27;100040.13;3376297;29;20423;-73
2021/06/05 05:02:18;;;;;;;6.18;1.65;;;;;;;23.06;44.16;100035.59;3376297;29;20533;-72
2021/06/05 05:04:01;;;;;;;4.22;1.30;;;;;;;23.20;44.07;100035.88;3376578;29;20041;-70
2021/06/05 05:05:42;;;;;;;7.53;1.52;;;;;;;23.31;44.09;100037.50;3376457;29;20045;-70
2021/06/05 05:07:23;;;;;;;9.70;1.33;;;;;;;23.41;43.60;100026.63;3376502;29;20127;-71
2021/06/05 05:09:06;;;;;;;3.87;1.40;;;;;;;23.52;43.54;100033.72;3375468;29;20300;-71
2021/06/05 05:10:50;;;;;;;4.05;1.20;;;;;;;23.62;43.31;100032.94;3376306;29;20052;-71
2021/06/05 05:12:31;;;;;;;5.38;1.20;;;;;;;23.71;42.93;100022.28;3375769;29;20473;-70
2021/06/05 05:14:12;;;;;;;2.50;1.10;;;;;;;23.78;42.36;100025.59;3374924;29;20041;-71
2021/06/05 05:15:54;;;;;;;7.93;1.57;;;;;;;23.84;42.32;100018.22;3375976;29;20075;-71
2021/06/05 05:17:35;;;;;;;10.95;1.48;;;;;;;23.90;42.02;100015.22;3375911;29;20297;-70
2021/06/05 05:19:16;;;;;;;7.77;1.37;;;;;;;23.98;41.80;100021.19;3396093;29;20064;-72
2021/06/05 05:20:59;;;;;;;4.10;1.60;;;;;;;24.04;42.11;100031.81;3388344;29;20419;-73
2021/06/05 05:22:40;;;;;;;5.18;1.55;;;;;;;24.09;42.28;100018.19;3399409;29;20480;-73
2021/06/05 05:24:22;;;;;;;8.18;1.58;;;;;;;24.18;42.22;100018.41;3401923;29;20142;-74
2021/06/05 05:26:04;;;;;;;4.47;1.63;;;;;;;24.25;41.79;100024.41;3402934;29;20044;-74
2021/06/05 05:27:45;;;;;;;3.88;1.60;;;;;;;24.30;41.08;100013.50;3402274;29;20050;-74
2021/06/05 05:29:25;;;;;;;4.00;1.50;;;;;;;24.36;40.56;100017.00;3401675;29;20130;-75
2021/06/05 05:31:11;;;;;;;4.37;1.40;;;;;;;24.42;40.00;100017.78;3402300;29;20110;-73
2021/06/05 05:32:52;;;;;;;4.07;1.40;;;;;;;24.47;40.29;100015.09;3396577;29;20047;-70
2021/06/05 05:34:33;;;;;;;5.10;1.77;;;;;;;24.50;40.05;100003.63;3402076;29;20569;-71
2021/06/05 05:36:17;;;;;;;3.33;1.47;;;;;;;24.60;40.11;100014.47;3402133;29;20047;-69
2021/06/05 05:37:58;;;;;;;4.53;1.55;;;;;;;24.60;39.24;100011.75;3401861;29;20415;-70
2021/06/05 05:39:39;;;;;;;4.77;1.60;;;;;;;24.65;38.64;100017.19;3402003;29;20167;-70
2021/06/05 05:41:22;;;;;;;12.53;1.40;;;;;;;24.70;38.70;100011.69;3402259;29;20103;-69
2021/06/05 05:43:03;;;;;;;9.35;1.55;;;;;;;24.75;38.25;100008.94;3387214;29;20507;-70
2021/06/05 05:44:44;;;;;;;13.40;1.73;;;;;;;24.79;37.81;100012.75;3399215;29;20039;-70
2021/06/05 05:46:24;;;;;;;7.50;1.37;;;;;;;24.80;37.78;100003.47;3402071;29;20051;-70
2021/06/05 05:48:08;;;;;;;11.13;2.07;;;;;;;24.89;38.02;100000.19;3400986;29;20047;-69
2021/06/05 05:49:49;;;;;;;10.90;2.63;;;;;;;24.94;37.70;100002.88;3401597;29;20047;-70
2021/06/05 05:51:30;;;;;;;7.07;2.17;;;;;;;25.00;37.68;100008.00;3402076;29;20384;-70
2021/06/05 05:53:11;;;;;;;5.43;1.50;;;;;;;25.07;37.60;100001.41;3401083;29;20047;-70
2021/06/05 05:54:52;;;;;;;9.88;1.42;;;;;;;25.11;37.14;99994.28;3388155;29;20052;-70
2021/06/05 05:56:34;;;;;;;12.37;1.90;;;;;;;25.13;36.97;99987.44;3399186;29;20051;-69
2021/06/05 05:58:16;;;;;;;4.13;1.63;;;;;;;25.18;36.95;99998.34;3401690;29;20134;-70
2021/06/05 05:59:57;;;;;;;5.45;1.60;;;;;;;25.22;36.54;99990.41;3401486;29;20055;-70
2021/06/05 06:01:38;;;;;;;4.93;1.73;;;;;;;25.19;36.07;99980.88;3401592;29;20420;-70
2021/06/05 06:03:20;;;;;;;6.23;1.60;;;;;;;25.28;36.22;99988.47;3401473;29;20036;-70
2021/06/05 06:05:00;;;;;;;1.83;1.20;;;;;;;25.31;36.17;99985.19;3402394;29;20055;-69
2021/06/05 06:06:41;;;;;;;2.70;1.80;;;;;;;25.33;36.23;99977.53;3387649;29;20455;-70
2021/06/05 06:08:22;;;;;;;2.57;1.50;;;;;;;25.39;35.99;99981.81;3398740;29;20043;-68
2021/06/05 06:10:04;;;;;;;8.07;2.53;;;;;;;25.41;35.61;99976.91;3401922;29;20467;-71
2021/06/05 06:11:46;;;;;;;8.30;3.10;;;;;;;25.45;35.72;99970.59;3387945;29;20142;-69
2021/06/05 06:13:27;;;;;;;5.07;1.90;;;;;;;25.42;35.62;99964.88;3384873;29;20107;-69
2021/06/05 06:15:13;;;;;;;5.22;2.05;;;;;;;25.52;35.26;99969.44;3384306;29;20068;-72
2021/06/05 06:16:54;;;;;;;4.50;1.77;;;;;;;25.57;35.23;99972.13;3397450;29;20055;-72
2021/06/05 06:18:38;;;;;;;5.13;1.92;;;;;;;25.62;35.29;99975.63;3407970;29;20101;-70
2021/06/05 06:20:26;;;;;;;7.28;1.52;;;;;;;25.67;35.12;99977.50;3390302;29;20048;-71
2021/06/05 06:22:07;;;;;;;22.83;2.22;;;;;;;25.72;35.22;99969.25;3413211;29;20053;-70
2021/06/05 06:23:49;;;;;;;5.43;1.73;;;;;;;25.81;35.18;99972.97;3413254;29;20039;-71
2021/06/05 06:25:31;;;;;;;11.02;1.70;;;;;;;25.90;34.61;99975.91;3404195;29;20419;-72
2021/06/05 06:27:12;;;;;;;6.82;1.40;;;;;;;25.98;34.30;99977.22;3405328;29;20094;-71
2021/06/05 06:28:54;;;;;;;3.77;1.47;;;;;;;26.05;33.71;99970.28;3401775;29;20047;-71
2021/06/05 06:30:37;;;;;;;8.32;1.25;;;;;;;26.15;33.89;99969.38;3401373;29;20039;-69
2021/06/05 06:32:18;;;;;;;2.85;1.40;;;;;;;26.22;33.88;99960.81;3401689;29;20051;-72
2021/06/05 06:33:59;;;;;;;10.27;1.60;;;;;;;26.34;33.41;99966.66;3401912;29;20048;-76
2021/06/05 06:35:40;;;;;;;11.80;1.67;;;;;;;26.44;33.30;99963.81;3401795;29;20040;-70
2021/06/05 06:37:21;;;;;;;;;;;;;;;26.61;33.37;99967.97;3389056;29;20055;-72
2021/06/05 06:39:03;;;;;;;14.70;2.17;;;;;;;26.64;34.44;99959.19;3405307;29;19923;-71
2021/06/05 06:40:45;;;;;;;9.55;1.95;;;;;;;26.74;34.05;99959.03;3404602;29;20419;-70
2021/06/05 06:42:26;;;;;;;10.68;2.17;;;;;;;26.80;33.53;99957.88;3414622;29;20407;-72
2021/06/05 06:44:07;;;;;;;6.80;3.67;;;;;;;26.88;33.35;99962.66;3414660;29;20035;-70
2021/06/05 06:45:48;;;;;;;23.30;19.20;;;;;;;26.91;33.67;99948.41;3415015;29;20039;-69
2021/06/05 06:47:29;;;;;;;42.17;38.00;;;;;;;27.00;33.38;99950.44;3414309;29;20039;-71
2021/06/05 06:49:10;;;;;;;43.33;38.00;;;;;;;27.05;33.18;99950.38;3387004;29;20111;-72
2021/06/05 06:50:51;;;;;;;53.13;27.98;;;;;;;27.09;33.51;99946.75;3374711;29;20484;-71
2021/06/05 06:52:32;;;;;;;69.70;22.13;;;;;;;27.14;33.32;99959.53;3385955;29;20040;-70
2021/06/05 06:54:14;;;;;;;28.40;12.77;;;;;;;27.21;31.93;99948.22;3393877;29;20503;-70
2021/06/05 06:55:54;;;;;;;21.00;13.52;;;;;;;27.25;32.11;99961.03;3408324;29;20039;-70
2021/06/05 06:57:35;;;;;;;36.80;14.40;;;;;;;27.35;32.14;99960.03;3403158;29;20183;-71
2021/06/05 06:59:17;;;;;;;30.40;14.00;;;;;;;27.45;32.47;99953.59;3403914;29;20118;-72
2021/06/05 07:00:57;;;;;;;29.63;12.35;;;;;;;27.52;32.86;99943.03;3389330;29;20044;-71
2021/06/05 07:02:38;;;;;;;50.00;22.90;;;;;;;27.57;34.04;99942.94;3401842;29;20078;-69
2021/06/05 07:04:19;;;;;;;18.33;10.33;;;;;;;27.57;34.37;99932.00;3404087;29;20046;-71
2021/06/05 07:06:00;;;;;;;21.00;6.57;;;;;;;27.66;33.14;99960.31;3389789;29;20052;-70
2021/06/05 07:07:41;;;;;;;20.75;6.38;;;;;;;27.72;33.30;99941.84;3400896;29;20138;-69
2021/06/05 07:09:21;;;;;;;19.00;6.33;;;;;;;27.79;33.12;99950.50;3404119;29;20043;-70
2021/06/05 07:11:25;;;;;;;19.67;5.30;;;;;;;27.88;32.23;99939.66;3404703;29;20104;-70
2021/06/05 07:13:06;;;;;;;15.10;5.90;;;;;;;27.94;32.73;99938.47;3407869;29;20039;-69
2021/06/05 07:14:47;;;;;;;13.75;5.32;;;;;;;28.02;32.37;99943.22;3404029;29;20046;-70
2021/06/05 07:16:28;;;;;;;12.00;5.03;;;;;;;28.09;31.91;99931.84;3404045;29;20052;-69
2021/06/05 07:18:11;;;;;;;34.72;6.85;;;;;;;28.15;32.47;99928.72;3389412;29;20533;-69
2021/06/05 07:19:52;;;;;;;10.00;4.40;;;;;;;28.23;31.67;99936.19;3396341;29;20069;-69
2021/06/05 07:21:33;;;;;;;14.10;4.77;;;;;;;28.30;32.71;99926.78;3414317;29;20075;-70
2021/06/05 07:23:14;;;;;;;12.43;5.47;;;;;;;28.36;32.56;99914.56;3417146;29;20046;-69
2021/06/05 07:24:55;;;;;;;7.60;4.72;;;;;;;28.44;32.17;99924.84;3417107;29;20074;-70
2021/06/05 07:26:36;;;;;;;13.17;4.73;;;;;;;28.49;31.53;99921.97;3414978;29;20477;-71
2021/06/05 07:28:25;;;;;;;8.50;4.35;;;;;;;28.58;31.63;99922.88;3416938;29;20470;-70
2021/06/05 07:30:07;;;;;;;8.18;5.18;;;;;;;28.64;30.90;99924.38;3416730;28;20046;-72
2021/06/05 07:31:50;;;;;;;7.78;3.80;;;;;;;28.72;31.84;99920.09;3416932;29;20049;-71
2021/06/05 07:33:32;;;;;;;5.00;3.35;;;;;;;28.79;31.36;99911.44;3417096;29;20069;-68
2021/06/05 07:35:13;;;;;;;6.55;3.20;;;;;;;28.87;30.75;99921.66;3416987;29;20078;-70
2021/06/05 07:37:02;;;;;;;4.23;3.50;;;;;;;28.95;31.69;99909.94;3392429;29;20076;-71
2021/06/05 07:38:43;;;;;;;7.43;3.63;;;;;;;28.99;31.09;99910.94;3401951;29;20426;-71
2021/06/05 07:40:23;;;;;;;8.90;3.77;;;;;;;29.05;30.35;99914.41;3403287;29;20043;-70
2021/06/05 07:42:07;;;;;;;8.60;3.78;;;;;;;29.07;30.37;99904.72;3389528;29;20047;-71
2021/06/05 07:43:47;;;;;;;17.38;4.15;;;;;;;29.10;30.31;99908.78;3401178;29;20042;-70
2021/06/05 07:45:28;;;;;;;9.00;3.40;;;;;;;29.13;30.18;99902.66;3389717;29;20048;-70
2021/06/05 07:47:09;;;;;;;22.85;3.85;;;;;;;29.18;30.38;99904.47;3391855;29;20519;-70
2021/06/05 07:48:50;;;;;;;9.87;2.87;;;;;;;29.20;30.43;99896.72;3413974;29;20051;-69
2021/06/05 07:50:31;;;;;;;7.30;2.50;;;;;;;29.24;29.90;99905.94;3416797;28;20043;-70
2021/06/05 07:52:12;;;;;;;5.55;2.13;;;;;;;29.32;29.25;99906.00;3416775;29;20403;-71
2021/06/05 07:53:53;;;;;;;7.10;2.28;;;;;;;29.40;29.16;99901.66;3416915;29;20110;-71
2021/06/05 07:55:34;;;;;;;5.97;2.33;;;;;;;29.51;29.21;99896.75;3400976;29;20435;-69
2021/06/05 07:57:15;;;;;;;5.00;2.15;;;;;;;29.59;28.96;99897.91;3389359;29;20048;-70
2021/06/05 07:58:55;;;;;;;5.37;2.47;;;;;;;29.63;28.77;99893.38;3400642;29;20518;-69
2021/06/05 08:00:37;;;;;;;6.23;2.13;;;;;;;29.68;28.51;99887.78;3402718;29;20044;-71
2021/06/05 08:02:18;;;;;;;;;;;;;;;29.83;28.73;99886.53;3389445;29;20296;-69
2021/06/05 08:03:59;;;;;;;11.75;2.60;;;;;;;29.76;28.18;99881.50;3400674;29;20429;-71